Terminal Aerodrome Forecast
Issued by NWS

Current Version | Previous Version | Text Only | Print | Product List | Glossary On
Versions: 1 2 3 4 5 6 7 8 9 10 11 12 13 14
000
FTUS45 KRIW 221700
TAFLND
TAF
KLND 221720Z 2218/2318 02007KT P6SM -SHRA SCT010 BKN040
     FM222200 13005KT P6SM VCTS SCT030 BKN050CB
     FM230300 VRB05KT P6SM -SHRA SCT025 BKN040
     FM231500 VRB03KT P6SM VCSH SCT020 BKN040=

USA.gov is the U.S. government's official web portal to all federal, state and local government web resources and services.